Terminal Aerodrome Forecast
Issued by NWS

Home | Current Version | Previous Version | Text Only | Print | Product List | Glossary On
Versions: 1 2 3 4 5 6 7 8 9 10 11 12 13 14 15
665
FTUS45 KMSO 262131 AAA
TAFSMN
TAF AMD
KSMN 262131Z 2622/2718 11008G14KT P6SM OVC110
      TEMPO 2623/2703 2SM -SN BR OVC025
     FM270900 VRB05KT P6SM VCSH OVC050
      AMD LTD TO CLD VIS AND WIND=

USA.gov is the U.S. government's official web portal to all federal, state and local government web resources and services.